createdAt,value
2022-09-09T00:00:52.100Z,0.40
2022-09-09T00:01:52.388Z,0.60
2022-09-09T00:02:52.179Z,0.60
2022-09-09T00:03:52.247Z,0.30
2022-09-09T00:04:52.139Z,0.30
2022-09-09T00:05:52.277Z,0.30
2022-09-09T00:06:52.068Z,0.30
2022-09-09T00:07:52.189Z,0.30
2022-09-09T00:08:52.098Z,0.30
2022-09-09T00:09:52.278Z,0.40
2022-09-09T00:10:52.040Z,0.40
2022-09-09T00:11:52.359Z,0.60
2022-09-09T00:12:52.077Z,0.90
2022-09-09T00:13:52.209Z,0.40
2022-09-09T00:14:52.059Z,0.80
2022-09-09T00:15:52.023Z,1.40
2022-09-09T00:16:52.027Z,0.90
2022-09-09T00:17:51.888Z,0.70
2022-09-09T00:18:52.137Z,0.60
2022-09-09T00:19:51.937Z,0.50
2022-09-09T00:20:52.119Z,0.50
2022-09-09T00:21:52.028Z,0.60
2022-09-09T00:22:52.098Z,0.40
2022-09-09T00:23:51.969Z,0.50
2022-09-09T00:24:52.098Z,0.40
2022-09-09T00:25:52.603Z,0.50
2022-09-09T00:26:52.047Z,0.50
2022-09-09T00:27:51.947Z,0.70
2022-09-09T00:28:52.219Z,0.50
2022-09-09T00:29:51.938Z,0.60
2022-09-09T00:30:51.831Z,0.50
2022-09-09T00:31:51.927Z,0.30
2022-09-09T00:32:51.771Z,0.40
2022-09-09T00:33:52.018Z,0.80
2022-09-09T00:34:51.920Z,0.50
2022-09-09T00:35:51.940Z,0.40
2022-09-09T00:36:51.739Z,0.70
2022-09-09T00:37:51.888Z,0.60
2022-09-09T00:38:51.839Z,0.40
2022-09-09T00:39:51.945Z,0.30
2022-09-09T00:40:51.819Z,0.60
2022-09-09T00:41:51.975Z,0.50
2022-09-09T00:42:51.748Z,0.50
2022-09-09T00:43:51.818Z,0.50
2022-09-09T00:44:51.779Z,0.40
2022-09-09T00:45:51.713Z,0.40
2022-09-09T00:46:51.727Z,0.50
2022-09-09T00:47:51.579Z,0.40
2022-09-09T00:48:51.757Z,0.60
2022-09-09T00:49:51.698Z,0.50
2022-09-09T00:50:51.780Z,0.40
2022-09-09T00:51:51.658Z,0.30
2022-09-09T00:52:51.772Z,0.60
2022-09-09T00:53:51.568Z,0.70
2022-09-09T00:54:51.738Z,0.70
2022-09-09T00:55:51.621Z,0.40
2022-09-09T00:56:51.768Z,0.50
2022-09-09T00:57:51.578Z,0.50
2022-09-09T00:58:51.707Z,0.50
2022-09-09T00:59:51.648Z,0.40
2022-09-09T01:00:51.669Z,0.50
2022-09-09T01:01:51.856Z,0.60
2022-09-09T01:02:51.576Z,0.30
2022-09-09T01:03:51.648Z,0.40
2022-09-09T01:04:51.448Z,0.50
2022-09-09T01:05:51.609Z,0.50
2022-09-09T01:06:51.427Z,0.40
2022-09-09T01:07:55.128Z,0.50
2022-09-09T01:08:51.500Z,0.80
2022-09-09T01:09:51.669Z,0.50
2022-09-09T01:10:51.438Z,0.70
2022-09-09T01:11:51.648Z,0.50
2022-09-09T01:12:51.478Z,0.50
2022-09-09T01:13:51.557Z,0.50
2022-09-09T01:14:51.548Z,0.40
2022-09-09T01:15:51.499Z,0.50
2022-09-09T01:16:51.577Z,0.30
2022-09-09T01:17:51.267Z,0.70
2022-09-09T01:18:51.557Z,0.40
2022-09-09T01:19:51.379Z,0.60
2022-09-09T01:20:51.539Z,0.40
2022-09-09T01:21:51.250Z,0.30
2022-09-09T01:22:51.433Z,0.40
2022-09-09T01:23:51.278Z,0.60
2022-09-09T01:24:51.438Z,0.60
2022-09-09T01:25:51.389Z,0.60
2022-09-09T01:26:51.458Z,0.50
2022-09-09T01:27:51.259Z,0.50
2022-09-09T01:28:51.538Z,0.40
2022-09-09T01:29:51.279Z,0.50
2022-09-09T01:30:51.478Z,0.70
2022-09-09T01:31:51.328Z,0.40
2022-09-09T01:32:51.242Z,0.60
2022-09-09T01:33:51.307Z,0.50
2022-09-09T01:34:51.121Z,0.70
2022-09-09T01:35:51.258Z,0.60
2022-09-09T01:36:51.208Z,0.40
2022-09-09T01:37:51.477Z,0.50
2022-09-09T01:38:51.268Z,1.00
2022-09-09T01:39:51.315Z,0.50
2022-09-09T01:40:51.099Z,0.70
2022-09-09T01:41:51.279Z,0.70
2022-09-09T01:42:51.137Z,0.70
2022-09-09T01:43:51.359Z,0.70
2022-09-09T01:44:51.168Z,0.70
2022-09-09T01:45:51.247Z,0.70
2022-09-09T01:46:51.158Z,0.60
2022-09-09T01:47:50.979Z,0.70
2022-09-09T01:48:51.098Z,0.80
2022-09-09T01:49:51.038Z,0.50
2022-09-09T01:50:51.137Z,0.80
2022-09-09T01:51:51.058Z,0.50
2022-09-09T01:52:51.097Z,0.90
2022-09-09T01:53:50.938Z,0.80
2022-09-09T01:54:51.140Z,0.50
2022-09-09T01:55:51.018Z,0.70
2022-09-09T01:56:51.108Z,0.50
2022-09-09T01:57:51.057Z,0.70
2022-09-09T01:58:50.997Z,1.30
2022-09-09T01:59:50.959Z,0.60
2022-09-09T02:00:51.148Z,0.60
2022-09-09T02:01:51.048Z,0.90
2022-09-09T02:02:51.196Z,0.50
2022-09-09T02:03:51.050Z,0.80
2022-09-09T02:04:50.923Z,0.50
2022-09-09T02:05:50.984Z,0.40
2022-09-09T02:06:50.849Z,0.40
2022-09-09T02:07:51.009Z,0.50
2022-09-09T02:08:50.779Z,0.40
2022-09-09T02:09:51.052Z,0.70
2022-09-09T02:10:50.809Z,0.60
2022-09-09T02:11:50.938Z,0.50
2022-09-09T02:12:50.868Z,0.50
2022-09-09T02:13:50.909Z,0.70
2022-09-09T02:14:50.868Z,0.60
2022-09-09T02:15:50.897Z,0.70
2022-09-09T02:16:50.840Z,0.60
2022-09-09T02:17:50.865Z,0.80
2022-09-09T02:18:50.907Z,0.50
2022-09-09T02:19:50.629Z,0.60
2022-09-09T02:20:50.798Z,0.70
2022-09-09T02:21:50.599Z,0.60
2022-09-09T02:22:50.881Z,0.60
2022-09-09T02:23:50.678Z,0.40
2022-09-09T02:24:50.828Z,0.60
2022-09-09T02:25:50.627Z,0.70
2022-09-09T02:26:50.748Z,0.60
2022-09-09T02:27:50.629Z,0.50
2022-09-09T02:28:50.749Z,0.70
2022-09-09T02:29:50.621Z,0.70
2022-09-09T02:30:50.844Z,0.90
2022-09-09T02:31:50.598Z,0.70
2022-09-09T02:32:50.770Z,0.50
2022-09-09T02:33:50.786Z,0.70
2022-09-09T02:34:50.567Z,0.80
2022-09-09T02:35:50.638Z,0.70
2022-09-09T02:36:50.677Z,0.60
2022-09-09T02:37:50.619Z,0.40
2022-09-09T02:38:50.529Z,0.60
2022-09-09T02:39:50.666Z,0.70
2022-09-09T02:40:50.477Z,0.90
2022-09-09T02:41:50.608Z,0.70
2022-09-09T02:42:51.917Z,0.70
2022-09-09T02:43:50.599Z,0.60
2022-09-09T02:44:50.517Z,0.50
2022-09-09T02:45:50.680Z,0.70
2022-09-09T02:46:50.587Z,0.70
2022-09-09T02:47:50.757Z,0.70
2022-09-09T02:48:50.567Z,0.70
2022-09-09T02:49:50.287Z,0.70
2022-09-09T02:50:50.471Z,0.70
2022-09-09T02:51:50.477Z,0.90
2022-09-09T02:52:50.497Z,0.50
2022-09-09T02:53:50.377Z,0.70
2022-09-09T02:54:50.469Z,1.20
2022-09-09T02:55:50.328Z,1.00
2022-09-09T02:56:50.869Z,0.80
2022-09-09T02:57:50.318Z,0.70
2022-09-09T02:58:50.829Z,0.90
2022-09-09T02:59:50.698Z,0.60
2022-09-09T03:00:50.822Z,0.80
2022-09-09T03:01:50.620Z,0.80
2022-09-09T03:02:50.388Z,0.90
2022-09-09T03:03:50.299Z,0.80
2022-09-09T03:04:50.227Z,0.60
2022-09-09T03:05:50.318Z,0.60
2022-09-09T03:06:50.199Z,0.70
2022-09-09T03:07:50.349Z,0.80
2022-09-09T03:08:50.179Z,0.60
2022-09-09T03:09:50.337Z,0.60
2022-09-09T03:10:50.407Z,0.80
2022-09-09T03:11:50.315Z,0.80
2022-09-09T03:12:50.259Z,1.00
2022-09-09T03:13:50.288Z,1.00
2022-09-09T03:14:50.158Z,0.90
2022-09-09T03:15:50.347Z,0.70
2022-09-09T03:16:50.258Z,0.60
2022-09-09T03:17:50.319Z,0.50
2022-09-09T03:18:50.190Z,0.80
2022-09-09T03:19:50.228Z,1.10
2022-09-09T03:20:50.168Z,0.40
2022-09-09T03:21:50.018Z,0.80
2022-09-09T03:22:50.359Z,0.70
2022-09-09T03:23:50.079Z,0.40
2022-09-09T03:24:50.221Z,0.60
2022-09-09T03:25:50.137Z,0.80
2022-09-09T03:26:50.159Z,0.60
2022-09-09T03:27:49.978Z,0.90
2022-09-09T03:28:50.198Z,1.10
2022-09-09T03:29:50.075Z,0.80
2022-09-09T03:30:50.140Z,0.90
2022-09-09T03:31:50.030Z,1.00
2022-09-09T03:32:50.070Z,0.70
2022-09-09T03:33:50.088Z,0.90
2022-09-09T03:34:50.229Z,1.00
2022-09-09T03:35:49.997Z,0.90
2022-09-09T03:36:49.829Z,0.80
2022-09-09T03:37:50.118Z,1.10
2022-09-09T03:38:49.857Z,0.90
2022-09-09T03:39:50.009Z,0.80
2022-09-09T03:40:50.269Z,0.80
2022-09-09T03:41:50.037Z,1.00
2022-09-09T03:42:49.838Z,0.60
2022-09-09T03:43:49.978Z,0.50
2022-09-09T03:44:50.024Z,0.50
2022-09-09T03:45:50.171Z,0.60
2022-09-09T03:46:49.980Z,0.70
2022-09-09T03:47:50.022Z,0.60
2022-09-09T03:48:49.928Z,0.60
2022-09-09T03:49:49.919Z,0.90
2022-09-09T03:50:49.898Z,0.60
2022-09-09T03:51:49.728Z,0.60
2022-09-09T03:52:49.849Z,0.80
2022-09-09T03:53:49.637Z,0.80
2022-09-09T03:54:49.869Z,0.80
2022-09-09T03:55:49.699Z,0.90
2022-09-09T03:56:49.878Z,0.50
2022-09-09T03:57:49.778Z,0.80
2022-09-09T03:58:49.899Z,0.60
2022-09-09T03:59:49.699Z,0.60
2022-09-09T04:00:49.836Z,0.90
2022-09-09T04:01:49.747Z,0.80
2022-09-09T04:02:49.778Z,0.50
2022-09-09T04:03:49.770Z,0.60
2022-09-09T04:04:49.780Z,0.70
2022-09-09T04:05:49.678Z,0.50
2022-09-09T04:06:49.548Z,0.60
2022-09-09T04:07:49.747Z,1.10
2022-09-09T04:08:49.506Z,0.70
2022-09-09T04:09:49.709Z,0.70
2022-09-09T04:10:49.520Z,0.50
2022-09-09T04:11:49.659Z,0.70
2022-09-09T04:12:49.717Z,0.60
2022-09-09T04:13:49.680Z,0.90
2022-09-09T04:14:49.603Z,0.60
2022-09-09T04:15:49.778Z,0.70
2022-09-09T04:16:49.649Z,0.70
2022-09-09T04:17:49.609Z,0.60
2022-09-09T04:18:49.539Z,1.00
2022-09-09T04:19:49.649Z,0.70
2022-09-09T04:20:49.630Z,0.90
2022-09-09T04:21:49.648Z,0.90
2022-09-09T04:22:49.600Z,0.80
2022-09-09T04:23:48.758Z,0.60
2022-09-09T04:24:49.547Z,1.00
2022-09-09T04:25:49.369Z,0.70
2022-09-09T04:26:49.640Z,3.80
2022-09-09T04:27:48.758Z,1.70
2022-09-09T04:28:49.538Z,1.00
2022-09-09T04:29:48.708Z,6.70
2022-09-09T04:30:50.746Z,7.80
2022-09-09T04:31:49.842Z,4.00
2022-09-09T04:32:48.700Z,4.50
2022-09-09T04:33:50.549Z,4.00
2022-09-09T04:34:49.538Z,3.60
2022-09-09T04:35:48.628Z,5.40
2022-09-09T04:36:49.548Z,4.10
2022-09-09T04:37:49.369Z,1.20
2022-09-09T04:38:49.428Z,1.80
2022-09-09T04:39:50.068Z,1.90
2022-09-09T04:40:49.219Z,1.50
2022-09-09T04:41:49.462Z,2.30
2022-09-09T04:42:49.219Z,2.20
2022-09-09T04:43:48.540Z,2.10
2022-09-09T04:44:50.413Z,2.30
2022-09-09T04:45:49.497Z,2.00
2022-09-09T04:46:48.509Z,3.30
2022-09-09T04:47:49.749Z,4.10
2022-09-09T04:48:48.988Z,1.90
2022-09-09T04:49:48.489Z,2.20
2022-09-09T04:50:49.460Z,1.20
2022-09-09T04:51:49.469Z,0.90
2022-09-09T04:52:49.210Z,0.60
2022-09-09T04:53:48.447Z,0.80
2022-09-09T04:54:49.259Z,0.80
2022-09-09T04:55:49.238Z,1.20
2022-09-09T04:56:49.217Z,0.70
2022-09-09T04:57:49.067Z,0.60
2022-09-09T04:58:48.378Z,0.50
2022-09-09T04:59:49.768Z,0.70
2022-09-09T05:00:48.716Z,0.70
2022-09-09T05:01:48.463Z,0.70
2022-09-09T05:02:50.220Z,1.10
2022-09-09T05:03:49.331Z,0.70
2022-09-09T05:04:48.331Z,0.90
2022-09-09T05:05:50.028Z,1.20
2022-09-09T05:06:49.149Z,1.00
2022-09-09T05:07:48.359Z,1.10
2022-09-09T05:08:49.899Z,1.60
2022-09-09T05:09:49.050Z,1.40
2022-09-09T05:10:48.269Z,1.40
2022-09-09T05:11:50.040Z,1.70
2022-09-09T05:12:49.239Z,0.90
2022-09-09T05:13:48.233Z,1.00
2022-09-09T05:14:48.868Z,1.30
2022-09-09T05:15:49.059Z,1.10
2022-09-09T05:16:48.207Z,1.40
2022-09-09T05:17:49.089Z,1.00
2022-09-09T05:18:48.239Z,1.10
2022-09-09T05:19:49.779Z,1.30
2022-09-09T05:20:48.960Z,1.40
2022-09-09T05:21:48.148Z,1.30
2022-09-09T05:22:48.958Z,1.00
2022-09-09T05:23:49.118Z,1.70
2022-09-09T05:24:48.109Z,1.50
2022-09-09T05:25:50.128Z,1.20
2022-09-09T05:26:49.218Z,1.30
2022-09-09T05:27:48.119Z,1.30
2022-09-09T05:28:49.309Z,1.10
2022-09-09T05:29:48.770Z,1.00
2022-09-09T05:30:48.059Z,0.70
2022-09-09T05:31:49.475Z,0.60
2022-09-09T05:32:49.001Z,1.30
2022-09-09T05:33:48.039Z,1.00
2022-09-09T05:34:48.849Z,1.10
2022-09-09T05:35:48.069Z,0.90
2022-09-09T05:36:49.450Z,1.20
2022-09-09T05:37:48.578Z,1.20
2022-09-09T05:38:47.969Z,1.10
2022-09-09T05:39:49.614Z,0.90
2022-09-09T05:40:48.899Z,1.00
2022-09-09T05:41:48.008Z,0.80
2022-09-09T05:42:49.290Z,0.60
2022-09-09T05:43:48.707Z,1.00
2022-09-09T05:44:48.619Z,0.70
2022-09-09T05:45:47.920Z,0.90
2022-09-09T05:46:49.408Z,0.80
2022-09-09T05:47:48.778Z,0.60
2022-09-09T05:48:47.879Z,0.90
2022-09-09T05:49:48.697Z,1.00
2022-09-09T05:50:47.852Z,0.60
2022-09-09T05:51:48.698Z,0.60
2022-09-09T05:52:47.828Z,0.50
2022-09-09T05:53:49.478Z,0.80
2022-09-09T05:54:48.648Z,0.60
2022-09-09T05:55:47.798Z,0.60
2022-09-09T05:56:51.710Z,0.70
2022-09-09T05:57:49.348Z,0.70
2022-09-09T05:58:48.608Z,0.90
2022-09-09T05:59:47.808Z,0.70
2022-09-09T06:00:48.579Z,0.90
2022-09-09T06:01:48.520Z,0.60
2022-09-09T06:02:47.900Z,0.80
2022-09-09T06:03:48.378Z,0.80
2022-09-09T06:04:48.527Z,0.80
2022-09-09T06:05:48.468Z,0.70
2022-09-09T06:06:48.617Z,0.60
2022-09-09T06:07:48.409Z,0.80
2022-09-09T06:08:48.619Z,0.60
2022-09-09T06:09:48.479Z,0.80
2022-09-09T06:10:48.250Z,0.90
2022-09-09T06:11:47.678Z,0.70
2022-09-09T06:12:49.869Z,0.90
2022-09-09T06:13:49.139Z,1.00
2022-09-09T06:14:48.328Z,1.30
2022-09-09T06:15:47.608Z,0.80
2022-09-09T06:16:48.258Z,0.90
2022-09-09T06:17:48.448Z,0.80
2022-09-09T06:18:47.558Z,0.90
2022-09-09T06:19:48.568Z,1.10
2022-09-09T06:20:48.218Z,0.80
2022-09-09T06:21:47.528Z,1.10
2022-09-09T06:22:48.208Z,1.00
2022-09-09T06:23:47.569Z,0.70
2022-09-09T06:24:48.288Z,0.90
2022-09-09T06:25:47.487Z,1.00
2022-09-09T06:26:48.268Z,1.10
2022-09-09T06:27:47.479Z,1.10
2022-09-09T06:28:48.258Z,1.10
2022-09-09T06:29:47.668Z,1.10
2022-09-09T06:30:49.019Z,1.10
2022-09-09T06:31:48.355Z,0.90
2022-09-09T06:32:48.251Z,1.00
2022-09-09T06:33:48.332Z,0.80
2022-09-09T06:34:48.368Z,0.90
2022-09-09T06:35:47.458Z,1.10
2022-09-09T06:36:48.858Z,0.80
2022-09-09T06:37:48.149Z,1.10
2022-09-09T06:38:48.181Z,1.10
2022-09-09T06:39:48.121Z,1.00
2022-09-09T06:40:47.358Z,1.30
2022-09-09T06:41:48.207Z,0.60
2022-09-09T06:42:47.338Z,1.10
2022-09-09T06:43:48.149Z,1.20
2022-09-09T06:44:47.300Z,0.70
2022-09-09T06:45:48.129Z,0.90
2022-09-09T06:46:48.037Z,1.30
2022-09-09T06:47:47.360Z,1.50
2022-09-09T06:48:49.118Z,1.20
2022-09-09T06:49:48.532Z,0.80
2022-09-09T06:50:47.871Z,1.40
2022-09-09T06:51:48.961Z,0.90
2022-09-09T06:52:48.117Z,0.90
2022-09-09T06:53:48.108Z,1.10
2022-09-09T06:54:47.938Z,1.10
2022-09-09T06:55:47.189Z,1.10
2022-09-09T06:56:49.040Z,0.80
2022-09-09T06:57:48.179Z,0.80
2022-09-09T06:58:47.949Z,1.50
2022-09-09T06:59:47.898Z,0.90
2022-09-09T07:00:47.194Z,1.10
2022-09-09T07:01:50.279Z,0.80
2022-09-09T07:02:47.109Z,1.30
2022-09-09T07:03:47.099Z,1.40
2022-09-09T07:04:48.350Z,0.90
2022-09-09T07:05:47.859Z,1.00
2022-09-09T07:06:47.889Z,1.10
2022-09-09T07:07:47.768Z,1.20
2022-09-09T07:08:55.935Z,1.30
2022-09-09T07:09:47.909Z,0.90
2022-09-09T07:10:47.039Z,1.20
2022-09-09T07:11:48.510Z,1.30
2022-09-09T07:12:47.657Z,1.00
2022-09-09T07:13:46.988Z,1.30
2022-09-09T07:14:48.317Z,0.90
2022-09-09T07:15:47.559Z,1.00
2022-09-09T07:16:47.659Z,1.00
2022-09-09T07:17:47.929Z,1.00
2022-09-09T07:18:47.728Z,1.10
2022-09-09T07:19:47.798Z,0.90
2022-09-09T07:20:47.807Z,1.00
2022-09-09T07:21:46.919Z,0.90
2022-09-09T07:22:47.659Z,1.00
2022-09-09T07:23:47.837Z,1.10
2022-09-09T07:24:47.659Z,1.20
2022-09-09T07:25:46.879Z,0.70
2022-09-09T07:26:47.662Z,1.40
2022-09-09T07:27:47.779Z,0.90
2022-09-09T07:28:47.668Z,1.10
2022-09-09T07:29:47.978Z,1.50
2022-09-09T07:30:47.658Z,0.80
2022-09-09T07:31:47.556Z,1.20
2022-09-09T07:32:47.589Z,0.90
2022-09-09T07:33:47.438Z,0.80
2022-09-09T07:34:47.638Z,0.90
2022-09-09T07:35:48.719Z,1.50
2022-09-09T07:36:47.578Z,0.90
2022-09-09T07:37:50.819Z,1.00
2022-09-09T07:38:47.600Z,1.00
2022-09-09T07:39:47.607Z,1.30
2022-09-09T07:40:47.537Z,2.10
2022-09-09T07:41:47.608Z,1.70
2022-09-09T07:42:47.608Z,1.40
2022-09-09T07:43:47.437Z,1.10
2022-09-09T07:44:47.297Z,0.90
2022-09-09T07:45:47.469Z,1.20
2022-09-09T07:46:47.398Z,1.40
2022-09-09T07:47:47.537Z,1.20
2022-09-09T07:48:48.453Z,1.00
2022-09-09T07:49:47.597Z,1.30
2022-09-09T07:50:47.428Z,1.10
2022-09-09T07:51:47.488Z,0.90
2022-09-09T07:52:47.329Z,1.00
2022-09-09T07:53:47.450Z,0.80
2022-09-09T07:54:47.322Z,0.90
2022-09-09T07:55:47.408Z,0.90
2022-09-09T07:56:48.358Z,1.10
2022-09-09T07:57:47.379Z,1.00
2022-09-09T07:58:47.298Z,0.70
2022-09-09T07:59:47.257Z,1.00
2022-09-09T08:00:47.268Z,0.90
2022-09-09T08:01:47.191Z,0.80
2022-09-09T08:02:47.404Z,1.20
2022-09-09T08:03:47.138Z,2.40
2022-09-09T08:04:47.308Z,0.90
2022-09-09T08:05:47.317Z,0.80
2022-09-09T08:06:48.257Z,0.70
2022-09-09T08:07:47.271Z,0.70
2022-09-09T08:08:47.229Z,0.90
2022-09-09T08:09:47.167Z,0.80
2022-09-09T08:10:46.467Z,1.00
2022-09-09T08:11:48.308Z,0.70
2022-09-09T08:13:01.368Z,0.90
2022-09-09T08:13:50.901Z,0.90
2022-09-09T08:14:46.407Z,0.70
2022-09-09T08:15:47.199Z,0.80
2022-09-09T08:16:47.089Z,0.70
2022-09-09T08:17:47.247Z,0.80
2022-09-09T08:18:46.979Z,1.00
2022-09-09T08:19:47.217Z,0.90
2022-09-09T08:20:46.309Z,0.90
2022-09-09T08:21:47.072Z,0.90
2022-09-09T08:22:47.038Z,0.70
2022-09-09T08:23:46.278Z,0.80
2022-09-09T08:24:48.321Z,0.80
2022-09-09T08:25:47.159Z,0.70
2022-09-09T08:26:46.970Z,0.80
2022-09-09T08:27:47.059Z,0.90
2022-09-09T08:28:46.277Z,0.60
2022-09-09T08:29:47.097Z,0.60
2022-09-09T08:30:46.282Z,0.60
2022-09-09T08:31:47.917Z,0.70
2022-09-09T08:32:47.237Z,0.70
2022-09-09T08:33:46.229Z,1.00
2022-09-09T08:34:48.100Z,0.70
2022-09-09T08:35:49.626Z,0.50
2022-09-09T08:36:47.957Z,0.60
2022-09-09T08:37:46.143Z,0.60
2022-09-09T08:38:47.055Z,0.90
2022-09-09T08:39:46.224Z,0.60
2022-09-09T08:40:47.150Z,0.60
2022-09-09T08:41:46.861Z,0.60
2022-09-09T08:42:46.977Z,0.50
2022-09-09T08:43:46.049Z,0.50
2022-09-09T08:44:48.993Z,0.70
2022-09-09T08:45:46.797Z,0.70
2022-09-09T08:46:46.681Z,0.90
2022-09-09T08:47:46.859Z,0.60
2022-09-09T08:48:46.727Z,0.80
2022-09-09T08:49:46.889Z,0.50
2022-09-09T08:50:46.720Z,0.60
2022-09-09T08:51:46.788Z,0.70
2022-09-09T08:52:46.668Z,0.60
2022-09-09T08:53:46.797Z,1.10
2022-09-09T08:54:52.531Z,0.80
2022-09-09T08:55:46.777Z,0.90
2022-09-09T08:56:45.992Z,0.60
2022-09-09T08:57:47.467Z,0.80
2022-09-09T08:58:46.788Z,0.50
2022-09-09T08:59:46.858Z,0.90
2022-09-09T09:00:46.690Z,0.70
2022-09-09T09:01:46.603Z,0.50
2022-09-09T09:02:46.849Z,1.40
2022-09-09T09:03:46.669Z,0.40
2022-09-09T09:04:46.759Z,0.50
2022-09-09T09:05:46.479Z,0.90
2022-09-09T09:06:46.698Z,0.70
2022-09-09T09:07:46.530Z,0.60
2022-09-09T09:08:46.698Z,0.60
2022-09-09T09:09:46.627Z,0.70
2022-09-09T09:10:46.717Z,0.70
2022-09-09T09:11:46.642Z,0.60
2022-09-09T09:12:45.787Z,0.50
2022-09-09T09:13:46.527Z,0.50
2022-09-09T09:14:46.578Z,0.50
2022-09-09T09:15:46.663Z,0.50
2022-09-09T09:16:46.338Z,0.70
2022-09-09T09:17:46.531Z,0.80
2022-09-09T09:18:46.311Z,0.50
2022-09-09T09:19:46.578Z,0.40
2022-09-09T09:20:46.328Z,0.70
2022-09-09T09:21:45.669Z,0.90
2022-09-09T09:22:46.410Z,0.50
2022-09-09T09:23:46.497Z,0.30
2022-09-09T09:24:46.477Z,0.60
2022-09-09T09:25:46.508Z,0.60
2022-09-09T09:26:46.437Z,0.60
2022-09-09T09:27:48.702Z,0.80
2022-09-09T09:28:46.349Z,0.70
2022-09-09T09:30:18.208Z,0.50
2022-09-09T09:30:47.118Z,1.10
2022-09-09T09:31:47.448Z,0.50
2022-09-09T09:32:46.439Z,0.40
2022-09-09T09:33:46.269Z,0.70
2022-09-09T09:34:46.409Z,0.60
2022-09-09T09:35:46.208Z,0.50
2022-09-09T09:36:46.429Z,0.50
2022-09-09T09:40:45.498Z,0.70
2022-09-09T09:41:46.257Z,0.60
2022-09-09T09:42:46.339Z,1.20
2022-09-09T09:43:45.466Z,0.50
2022-09-09T09:44:46.241Z,0.40
2022-09-09T09:45:55.380Z,1.00
2022-09-09T09:46:46.889Z,0.40
2022-09-09T09:47:46.247Z,0.70
2022-09-09T09:48:46.059Z,0.40
2022-09-09T09:49:46.258Z,0.50
2022-09-09T09:50:45.400Z,0.30
2022-09-09T09:51:46.290Z,0.40
2022-09-09T09:52:45.370Z,0.40
2022-09-09T09:53:46.886Z,0.40
2022-09-09T09:54:46.118Z,0.70
2022-09-09T09:55:46.181Z,0.40
2022-09-09T09:56:46.189Z,0.50
2022-09-09T09:57:45.319Z,0.70
2022-09-09T09:58:47.035Z,0.40
2022-09-09T09:59:46.297Z,0.50
2022-09-09T10:00:45.410Z,0.60
2022-09-09T10:01:46.223Z,0.60
2022-09-09T10:02:46.007Z,0.50
2022-09-09T10:03:45.838Z,0.50
2022-09-09T10:04:45.338Z,0.30
2022-09-09T10:05:45.889Z,0.50
2022-09-09T10:06:46.062Z,0.30
2022-09-09T10:07:45.858Z,0.60
2022-09-09T10:08:46.008Z,0.70
2022-09-09T10:09:45.198Z,0.40
2022-09-09T10:10:48.186Z,0.30
2022-09-09T10:11:46.658Z,0.60
2022-09-09T10:12:45.977Z,0.60
2022-09-09T10:13:45.132Z,0.40
2022-09-09T10:14:46.717Z,0.50
2022-09-09T10:15:45.758Z,0.40
2022-09-09T10:16:46.058Z,0.40
2022-09-09T10:17:45.119Z,0.80
2022-09-09T10:18:45.959Z,0.50
2022-09-09T10:19:45.109Z,0.60
2022-09-09T10:20:46.377Z,0.40
2022-09-09T10:21:45.898Z,0.40
2022-09-09T10:22:45.127Z,0.80
2022-09-09T10:23:45.908Z,0.50
2022-09-09T10:24:45.971Z,0.50
2022-09-09T10:25:46.918Z,0.80
2022-09-09T10:26:45.928Z,0.50
2022-09-09T10:27:45.818Z,0.60
2022-09-09T10:28:45.883Z,0.70
2022-09-09T10:29:45.000Z,0.60
2022-09-09T10:30:45.785Z,0.50
2022-09-09T10:31:44.960Z,0.40
2022-09-09T10:32:46.377Z,0.50
2022-09-09T10:33:45.648Z,0.50
2022-09-09T10:34:45.820Z,0.40
2022-09-09T10:35:45.569Z,0.50
2022-09-09T10:36:44.908Z,0.60
2022-09-09T10:37:45.658Z,0.50
2022-09-09T10:38:44.878Z,0.70
2022-09-09T10:39:46.636Z,0.50
2022-09-09T10:40:44.941Z,0.50
2022-09-09T10:41:45.567Z,0.40
2022-09-09T10:42:44.847Z,0.50
2022-09-09T10:43:46.508Z,0.40
2022-09-09T10:44:45.660Z,0.70
2022-09-09T10:45:44.900Z,0.50
2022-09-09T10:46:45.657Z,0.40
2022-09-09T10:47:44.809Z,0.30
2022-09-09T10:48:46.397Z,0.70
2022-09-09T10:49:45.239Z,0.40
2022-09-09T10:51:04.281Z,0.60
2022-09-09T10:51:45.598Z,0.50
2022-09-09T10:52:45.467Z,0.50
2022-09-09T10:53:45.517Z,0.60
2022-09-09T10:54:45.407Z,0.50
2022-09-09T10:55:44.718Z,0.50
2022-09-09T10:56:46.389Z,0.40
2022-09-09T10:57:45.617Z,0.30
2022-09-09T10:58:44.697Z,0.80
2022-09-09T10:59:45.937Z,1.30
2022-09-09T11:00:45.419Z,2.90
2022-09-09T11:01:45.565Z,2.00
2022-09-09T11:02:44.698Z,0.30
2022-09-09T11:03:45.618Z,0.40
2022-09-09T11:04:45.427Z,0.50
2022-09-09T11:05:45.617Z,0.40
2022-09-09T11:06:45.705Z,0.40
2022-09-09T11:07:45.327Z,0.50
2022-09-09T11:08:45.369Z,0.40
2022-09-09T11:09:45.217Z,0.50
2022-09-09T11:10:45.338Z,0.60
2022-09-09T11:11:45.237Z,0.40
2022-09-09T11:12:44.568Z,0.30
2022-09-09T11:13:45.939Z,0.30
2022-09-09T11:14:45.447Z,0.60
2022-09-09T11:15:44.572Z,0.30
2022-09-09T11:16:46.389Z,0.30
2022-09-09T11:17:44.499Z,0.40
2022-09-09T11:18:45.391Z,0.30
2022-09-09T11:19:45.327Z,0.80
2022-09-09T11:20:45.287Z,0.50
2022-09-09T11:21:45.318Z,0.40
2022-09-09T11:22:45.180Z,0.20
2022-09-09T11:23:44.476Z,0.30
2022-09-09T11:24:46.076Z,0.40
2022-09-09T11:25:45.057Z,0.50
2022-09-09T11:26:45.088Z,0.70
2022-09-09T11:27:44.407Z,0.40
2022-09-09T11:28:45.998Z,0.50
2022-09-09T11:29:45.227Z,0.50
2022-09-09T11:30:56.180Z,0.40
2022-09-09T11:31:45.328Z,0.50
2022-09-09T11:32:45.081Z,0.40
2022-09-09T11:33:45.226Z,0.40
2022-09-09T11:34:45.118Z,0.50
2022-09-09T11:35:45.257Z,0.50
2022-09-09T11:36:45.102Z,0.30
2022-09-09T11:37:44.989Z,0.50
2022-09-09T11:38:45.027Z,0.50
2022-09-09T11:39:45.044Z,0.50
2022-09-09T11:40:45.240Z,0.40
2022-09-09T11:41:44.268Z,0.40
2022-09-09T11:42:46.111Z,0.30
2022-09-09T11:43:44.991Z,0.30
2022-09-09T11:44:45.317Z,0.40
2022-09-09T11:45:45.130Z,0.40
2022-09-09T11:46:45.029Z,0.30
2022-09-09T11:47:44.938Z,0.30
2022-09-09T11:48:44.248Z,0.60
2022-09-09T11:49:45.518Z,0.30
2022-09-09T11:50:44.519Z,0.30
2022-09-09T11:51:44.149Z,0.30
2022-09-09T11:52:45.408Z,0.40
2022-09-09T11:53:44.668Z,0.50
2022-09-09T11:54:44.178Z,0.60
2022-09-09T11:55:45.679Z,0.30
2022-09-09T11:56:44.399Z,0.50
2022-09-09T11:57:48.927Z,0.30
2022-09-09T11:58:44.107Z,1.10
2022-09-09T11:59:44.078Z,0.40
2022-09-09T12:00:45.438Z,0.50
2022-09-09T12:01:44.579Z,0.30
2022-09-09T12:02:44.118Z,0.30
2022-09-09T12:03:45.462Z,0.40
2022-09-09T12:04:44.944Z,0.40
2022-09-09T12:05:44.018Z,0.30
2022-09-09T12:06:44.918Z,0.40
2022-09-09T12:07:43.978Z,0.50
2022-09-09T12:08:45.367Z,0.40
2022-09-09T12:09:44.647Z,0.40
2022-09-09T12:10:43.977Z,0.40
2022-09-09T12:11:45.791Z,0.40
2022-09-09T12:12:44.288Z,0.40
2022-09-09T12:13:45.499Z,0.50
2022-09-09T12:14:44.749Z,0.30
2022-09-09T12:15:43.932Z,0.40
2022-09-09T12:16:45.450Z,0.40
2022-09-09T12:17:44.699Z,0.40
2022-09-09T12:18:43.919Z,0.40
2022-09-09T12:19:45.539Z,0.90
2022-09-09T12:20:44.389Z,0.60
2022-09-09T12:21:43.948Z,0.50
2022-09-09T12:22:44.657Z,0.40
2022-09-09T12:23:43.898Z,0.50
2022-09-09T12:24:45.460Z,0.30
2022-09-09T12:25:44.370Z,0.50
2022-09-09T12:26:43.799Z,0.40
2022-09-09T12:27:46.119Z,0.70
2022-09-09T12:28:45.607Z,0.50
2022-09-09T12:29:44.680Z,0.50
2022-09-09T12:30:43.813Z,0.20
2022-09-09T12:31:45.839Z,0.40
2022-09-09T12:32:44.488Z,0.70
2022-09-09T12:33:43.749Z,0.80
2022-09-09T12:34:44.559Z,0.60
2022-09-09T12:35:45.568Z,0.40
2022-09-09T12:36:44.539Z,0.40
2022-09-09T12:37:44.480Z,0.30
2022-09-09T12:38:44.481Z,0.50
2022-09-09T12:39:44.639Z,0.30
2022-09-09T12:40:44.429Z,0.50
2022-09-09T12:41:43.658Z,0.30
2022-09-09T12:42:44.400Z,0.40
2022-09-09T12:43:44.258Z,0.40
2022-09-09T12:44:44.499Z,0.50
2022-09-09T12:45:44.285Z,0.70
2022-09-09T12:46:43.609Z,0.40
2022-09-09T12:47:45.010Z,0.50
2022-09-09T12:48:44.460Z,0.60
2022-09-09T12:49:43.568Z,0.70
2022-09-09T12:50:45.049Z,0.40
2022-09-09T12:51:44.228Z,0.40
2022-09-09T12:52:43.539Z,0.70
2022-09-09T12:53:44.929Z,0.70
2022-09-09T12:54:43.879Z,0.40
2022-09-09T12:55:43.517Z,0.50
2022-09-09T12:56:44.139Z,0.60
2022-09-09T12:57:43.499Z,0.50
2022-09-09T12:58:44.143Z,0.50
2022-09-09T12:59:43.438Z,0.60
2022-09-09T13:00:45.328Z,0.70
2022-09-09T13:01:44.668Z,0.50
2022-09-09T13:02:43.481Z,0.50
2022-09-09T13:03:44.998Z,0.40
2022-09-09T13:04:43.867Z,0.40
2022-09-09T13:05:43.397Z,0.50
2022-09-09T13:06:45.041Z,0.50
2022-09-09T13:07:44.322Z,0.60
2022-09-09T13:08:43.358Z,0.30
2022-09-09T13:09:44.944Z,0.50
2022-09-09T13:10:54.733Z,0.40
2022-09-09T13:11:44.802Z,0.40
2022-09-09T13:12:43.388Z,0.50
2022-09-09T13:13:45.079Z,0.30
2022-09-09T13:14:44.220Z,0.30
2022-09-09T13:15:43.948Z,0.40
2022-09-09T13:16:44.261Z,0.60
2022-09-09T13:17:43.310Z,0.50
2022-09-09T13:18:44.138Z,0.20
2022-09-09T13:19:43.958Z,0.40
2022-09-09T13:20:44.099Z,0.30
2022-09-09T13:21:43.920Z,0.40